Flight Track Log - Related Links

Times and Time Zones

All times are in EDT time to prevent confusion due to time zone crossing. See the TAM3518 flight status page for this flight to view local times or setup timezone preferences in your user account.

Time Position Orientation Groundspeed Altitude Reporting Facility
EDT Latitude Longitude Course Direction KTS MPH feet Rate Location/Type
Mon 07:15:00 AM -19.6124 -41.4666 300° West  Level Estimated
Mon 07:16:00 AM -19.5690 -41.5449 300° West  Level Estimated
Mon 07:17:00 AM -19.5257 -41.6232 300° West  Level Estimated
Mon 07:18:00 AM -19.4823 -41.7015 300° West  Level Estimated
Mon 07:19:00 AM -19.4389 -41.7797 300° West  Level Estimated
Mon 07:20:00 AM -19.3954 -41.8578 301° West  Level Estimated
Mon 07:21:00 AM -19.3519 -41.9360 301° West  Level Estimated
Mon 07:22:00 AM -19.3084 -42.0140 301° West  Level Estimated
Mon 07:23:00 AM -19.2648 -42.0921 301° West  Level Estimated
Mon 07:24:00 AM -19.2213 -42.1701 301° West  Level Estimated
Mon 07:25:00 AM -19.1776 -42.2481 301° West  Level Estimated
Mon 07:26:00 AM -19.1249 -42.3421 301° West  Level Estimated
Mon 07:27:00 AM -19.0722 -42.4361 301° West  Level Estimated
Mon 07:28:00 AM -19.0194 -42.5301 301° West  Level Estimated
Mon 07:29:00 AM -18.9665 -42.6240 301° West  Level Estimated
Mon 07:30:00 AM -18.9136 -42.7178 301° West  Level Estimated
Mon 07:31:00 AM -18.8607 -42.8116 301° West  Level Estimated
Mon 07:32:00 AM -18.8077 -42.9053 301° West  Level Estimated
Mon 07:33:00 AM -18.7546 -42.9989 301° West  Level Estimated
Mon 07:34:00 AM -18.7015 -43.0925 301° West  Level Estimated
Mon 07:35:00 AM -18.6484 -43.1861 301° West  Level Estimated
Mon 07:36:00 AM -18.5952 -43.2795 301° West  Level Estimated
Mon 07:37:00 AM -18.5420 -43.3730 301° West  Level Estimated
Mon 07:38:00 AM -18.4887 -43.4663 301° West  Level Estimated
Mon 07:39:00 AM -18.4354 -43.5596 301° West  Level Estimated
Mon 07:40:00 AM -18.3820 -43.6529 301° West  Level Estimated
Mon 07:41:00 AM -18.3286 -43.7460 301° West  Level Estimated
Mon 07:42:00 AM -18.2752 -43.8392 301° West  Level Estimated
Mon 07:43:00 AM -18.2217 -43.9322 301° West  Level Estimated
Mon 07:44:00 AM -18.1681 -44.0252 301° West  Level Estimated
Mon 07:45:00 AM -18.1146 -44.1182 301° West  Level Estimated
Mon 07:46:00 AM -18.0609 -44.2111 301° West  Level Estimated
Mon 07:47:00 AM -18.0072 -44.3040 301° West  Level Estimated
Mon 07:48:00 AM -17.9535 -44.3967 301° West  Level Estimated
Mon 07:49:00 AM -17.8998 -44.4895 301° West  Level Estimated
Mon 07:50:00 AM -17.8460 -44.5821 301° West  Level Estimated
Mon 07:51:00 AM -17.7921 -44.6748 301° West  Level Estimated
Mon 07:52:00 AM -17.7382 -44.7673 301° West  Level Estimated
Mon 07:53:00 AM -17.6843 -44.8598 301° West  Level Estimated
Mon 07:54:00 AM -17.6303 -44.9523 301° West  Level Estimated
Mon 07:55:00 AM -17.5763 -45.0447 302° West  Level Estimated
Mon 07:56:00 AM -17.5222 -45.1370 302° West  Level Estimated
Mon 07:57:00 AM -17.4681 -45.2293 302° West  Level Estimated
Mon 07:58:00 AM -17.4139 -45.3215 302° West  Level Estimated
Mon 07:59:00 AM -17.3597 -45.4137 302° West  Level Estimated
Mon 08:00:00 AM -17.3055 -45.5058 302° West  Level Estimated
Mon 08:01:00 AM -17.2512 -45.5979 302° West  Level Estimated
Mon 08:02:00 AM -17.1969 -45.6899 302° West  Level Estimated
Mon 08:03:00 AM -17.1425 -45.7819 302° West  Level Estimated
Mon 08:04:00 AM -17.0881 -45.8738 302° West  Level Estimated
Mon 08:05:00 AM -17.0337 -45.9656 302° West  Level Estimated
Mon 08:06:00 AM -16.9792 -46.0574 302° West  Level Estimated
Mon 08:07:00 AM -16.9247 -46.1492 302° West  Level Estimated
Mon 08:08:00 AM -16.8701 -46.2409 302° West  Level Estimated
Mon 08:09:00 AM -16.8155 -46.3325 302° West  Level Estimated
Mon 08:10:00 AM -16.7608 -46.4241 302° West  Level Estimated
Mon 08:11:00 AM -16.7061 -46.5156 302° West  Level Estimated
Mon 08:12:00 AM -16.6514 -46.6071 302° West  Level Estimated
Mon 08:13:00 AM -16.5966 -46.6985 302° West  Level Estimated
Mon 08:14:00 AM -16.5418 -46.7899 302° West  Level Estimated
Mon 08:15:00 AM -16.4870 -46.8812 302° West  Level Estimated
Mon 08:16:00 AM -16.4321 -46.9725 302° West  Level Estimated
Mon 08:17:00 AM -16.3771 -47.0637 302° West  Level Estimated
Mon 08:18:00 AM -16.3222 -47.1549 302° West  Level Estimated
Mon 08:19:00 AM -16.2672 -47.2460 302° West  Level Estimated
Mon 08:20:00 AM -16.2121 -47.3371 302° West  Level Estimated
Mon 08:21:00 AM -16.1570 -47.4281 302° West  Level Estimated
Mon 08:22:00 AM -16.1019 -47.5191 302° West  Level Estimated
Mon 08:23:00 AM -16.0467 -47.6100 302° West  Level Estimated
Mon 08:24:00 AM -15.9915 -47.7008 302° West  Level Estimated
Mon 08:25:00 AM -15.9363 -47.7916 302° West  Level Estimated
Mon 08:26:00 AM -15.8810 -47.8824 302° West  Level Estimated
Mon 08:27:00 AM -15.8626 -47.9127 302° West  Level Estimated
Mon 08:28:00 AM -15.8626 -47.9127 128° Southeast  Level Estimated
Mon 08:29:00 AM -15.8626 -47.9127 128° Southeast  Level Estimated
Mon 08:30:00 AM -15.8626 -47.9127 128° Southeast  Level Estimated
Mon 08:31:00 AM -15.8626 -47.9127 128° Southeast  Level Estimated
Mon 08:32:00 AM -15.8626 -47.9127 128° Southeast  Level Estimated
Mon 08:33:00 AM -15.8626 -47.9127 128° Southeast  Level Estimated
Mon 08:34:00 AM -15.8626 -47.9127 128° Southeast  Level Estimated
Mon 08:35:00 AM -15.8626 -47.9127 128° Southeast  Level Estimated
Mon 08:36:00 AM -15.8626 -47.9127 128° Southeast  Level Estimated
Mon 08:37:00 AM -15.8626 -47.9127 128° Southeast  Level Estimated
Mon 08:38:00 AM -15.8626 -47.9127 128° Southeast  Level Estimated

Login

Don't have an account? Register now (free) for customized features, flight alerts, and more!